Buoy 13570

sailwx.info

Track history (hours):
 
Tides and Currents Weather Stations Pressure Air Temp Water Temp Dewpoint Dewpoint Depression Visibility Wind Speed Wind Dir Waves Ship Positions

Drifting buoy 13570

Last reported at 2015-Apr-20 22:00 UTC. Time now 2015-Apr-21 01:26 UTC.
Position N 37°36' W 025°13'.

Barometer 1027.4 mb
Water temperature 16.7 ° C

Date/timePositionNaut miles runAvg speedWind from/ knotsBaromVisibWave heightAir tempDewpointWater temp
2015-Apr-20 22:00N 37°36' W 025°13'2 0.3 1027.4 16.7
2015-Apr-20 16:00N 37°34' W 025°14'2 2.3 1027.5 16.9
2015-Apr-20 15:00N 37°32' W 025°16'0 0.0 1027.9 16.8
2015-Apr-20 14:00N 37°32' W 025°16'1 0.4 1028.1 16.8
2015-Apr-20 12:00N 37°32' W 025°16'1 1.2 1029.4 16.7
2015-Apr-20 11:00N 37°31' W 025°17'0 0.0 1029.7 16.6
2015-Apr-20 10:00N 37°31' W 025°17'1 0.2 1029.5 16.5
2015-Apr-20 07:00N 37°30' W 025°17'1 0.8 1028.5 16.5
2015-Apr-20 06:00N 37°31' W 025°16'6 0.8 1028.2 16.5
2015-Apr-19 22:00N 37°26' W 025°22'1 0.3 1029.0 16.6
2015-Apr-19 20:00N 37°27' W 025°22'1 0.7 1027.8 16.7
2015-Apr-19 19:00N 37°26' W 025°21'9 0.5 1027.5 16.7
2015-Apr-19 00:00N 37°24' W 025°32'0 0.1 1024.2 16.5
2015-Apr-18 19:00N 37°24' W 025°31'4 0.5 1021.2 16.5
2015-Apr-18 11:00N 37°26' W 025°36'2 1.9 1018.7 16.4
2015-Apr-18 10:00N 37°27' W 025°38'1 0.1 1017.8 16.4
2015-Apr-18 06:00N 37°27' W 025°39'4 0.4 1015.4 16.5
2015-Apr-17 22:00N 37°28' W 025°43'2 0.3 1020.0 16.5
2015-Apr-17 14:00N 37°27' W 025°46'0 0.4 1022.6 16.5
2015-Apr-17 13:00N 37°27' W 025°45'2 0.3 1023.2 16.5
2015-Apr-17 08:00N 37°27' W 025°47'0 0.4 1024.0 16.4
2015-Apr-17 07:00N 37°27' W 025°48'1 1.4 1023.9 16.5
2015-Apr-17 06:00N 37°27' W 025°50'1 0.1 1024.0 16.5
2015-Apr-16 23:00N 37°27' W 025°49'1 0.2 1026.6 16.8
2015-Apr-16 18:00N 37°27' W 025°51'0 0.2 1025.6 17.5
2015-Apr-16 17:00N 37°28' W 025°51'1 0.7 1025.5 17.6
2015-Apr-16 16:00N 37°28' W 025°50'3 0.4 1025.9 17.2
2015-Apr-16 10:00N 37°29' W 025°53'0 0.1 1026.3 16.4
2015-Apr-16 06:00N 37°28' W 025°53'2 0.2 1023.9 16.4
2015-Apr-15 19:00N 37°30' W 025°53'1 0.2 1021.5 16.5
2015-Apr-15 16:00N 37°31' W 025°53'0 0.4 1022.0 16.6
2015-Apr-15 15:00N 37°31' W 025°53'1 0.3 1021.8 16.6
2015-Apr-15 11:00N 37°32' W 025°54'2 0.4 1022.1 16.5
2015-Apr-15 07:00N 37°31' W 025°56'0 0.3 1021.9 16.5
2015-Apr-15 06:00N 37°31' W 025°56'0 0.1 1022.0 16.5
2015-Apr-15 03:00N 37°31' W 025°56'0 0.2 1023.4 16.6
2015-Apr-15 02:00N 37°31' W 025°56'2 0.2 1024.1 16.6
2015-Apr-14 17:00N 37°33' W 025°56'2 0.2 1024.4 16.9
2015-Apr-14 06:00N 37°35' W 025°57'0 0.1 1024.9 16.4
2015-Apr-14 03:00N 37°35' W 025°56'0 0.1 1025.3 16.4
2015-Apr-14 00:00N 37°36' W 025°56'0 0.0 1026.1 16.4
2015-Apr-13 14:00N 37°35' W 025°56'1 0.6 1025.2 16.4
2015-Apr-13 13:00N 37°35' W 025°55'1 0.3 1025.3 16.4
2015-Apr-13 11:00N 37°35' W 025°54'0 0.2 1025.3 16.3
2015-Apr-13 09:00N 37°36' W 025°54'0 0.2 1024.8 16.3
2015-Apr-13 07:00N 37°36' W 025°54'0 0.1 1023.9 16.3
2015-Apr-13 04:00N 37°36' W 025°54'3 0.3 1023.3 16.3
2015-Apr-12 20:00N 37°36' W 025°51'1 0.4 1022.7 16.5
2015-Apr-12 18:00N 37°37' W 025°51'0 0.0 1022.2 16.6
2015-Apr-12 17:00N 37°37' W 025°51'2 0.3 1022.0 16.7
2015-Apr-12 08:00N 37°37' W 025°48'0 0.5 1020.7 16.8
2015-Apr-12 07:00N 37°37' W 025°48'1 0.3 1019.7 16.8
2015-Apr-12 05:00N 37°38' W 025°48'2 1.7 1019.2 16.8
2015-Apr-12 04:00N 37°37' W 025°46'1 0.1 1019.0 16.8
2015-Apr-11 22:00N 37°38' W 025°46'0 0.0 1019.6 16.9
2015-Apr-11 21:00N 37°38' W 025°46'2 0.5 1019.5 16.9
2015-Apr-11 18:00N 37°39' W 025°46'0 0.0 1017.1 17.0
2015-Apr-11 17:00N 37°39' W 025°46'1 0.9 1017.7 17.1
2015-Apr-11 16:00N 37°40' W 025°47'0 0.0 1018.4 17.1
2015-Apr-11 15:00N 37°40' W 025°47'1 1.4 1019.5 17.1
2015-Apr-11 14:00N 37°39' W 025°48'1 0.4 1020.2 17.1
2015-Apr-11 11:00N 37°38' W 025°47'0 0.2 1022.8 17.0
2015-Apr-11 09:00N 37°38' W 025°47'1 0.2 1022.9 17.0
2015-Apr-11 05:00N 37°38' W 025°46'1 0.6 1024.3 17.0
2015-Apr-11 04:00N 37°38' W 025°47'1 0.3 1025.0 17.0
2015-Apr-11 00:00N 37°37' W 025°47'   1028.0 17.1
Track history (hours):
 
Tides and Currents Weather Stations Pressure Air Temp Water Temp Dewpoint Dewpoint Depression Visibility Wind Speed Wind Dir Waves Ship Positions

Drifting buoy 13570

Last reported at 2015-Apr-20 22:00 UTC. Time now 2015-Apr-21 01:26 UTC.
Position N 37°36' W 025°13'.

Barometer 1027.4 mb
Water temperature 16.7 ° C

Date/timePositionNaut miles runAvg speedWind from/ knotsBaromVisibWave heightAir tempDewpointWater temp
2015-Apr-20 22:00N 37°36' W 025°13'2 0.3 1027.4 16.7
2015-Apr-20 16:00N 37°34' W 025°14'2 2.3 1027.5 16.9
2015-Apr-20 15:00N 37°32' W 025°16'0 0.0 1027.9 16.8
2015-Apr-20 14:00N 37°32' W 025°16'1 0.4 1028.1 16.8
2015-Apr-20 12:00N 37°32' W 025°16'1 1.2 1029.4 16.7
2015-Apr-20 11:00N 37°31' W 025°17'0 0.0 1029.7 16.6
2015-Apr-20 10:00N 37°31' W 025°17'1 0.2 1029.5 16.5
2015-Apr-20 07:00N 37°30' W 025°17'1 0.8 1028.5 16.5
2015-Apr-20 06:00N 37°31' W 025°16'6 0.8 1028.2 16.5
2015-Apr-19 22:00N 37°26' W 025°22'1 0.3 1029.0 16.6
2015-Apr-19 20:00N 37°27' W 025°22'1 0.7 1027.8 16.7
2015-Apr-19 19:00N 37°26' W 025°21'9 0.5 1027.5 16.7
2015-Apr-19 00:00N 37°24' W 025°32'0 0.1 1024.2 16.5
2015-Apr-18 19:00N 37°24' W 025°31'4 0.5 1021.2 16.5
2015-Apr-18 11:00N 37°26' W 025°36'2 1.9 1018.7 16.4
2015-Apr-18 10:00N 37°27' W 025°38'1 0.1 1017.8 16.4
2015-Apr-18 06:00N 37°27' W 025°39'4 0.4 1015.4 16.5
2015-Apr-17 22:00N 37°28' W 025°43'2 0.3 1020.0 16.5
2015-Apr-17 14:00N 37°27' W 025°46'0 0.4 1022.6 16.5
2015-Apr-17 13:00N 37°27' W 025°45'2 0.3 1023.2 16.5
2015-Apr-17 08:00N 37°27' W 025°47'0 0.4 1024.0 16.4
2015-Apr-17 07:00N 37°27' W 025°48'1 1.4 1023.9 16.5
2015-Apr-17 06:00N 37°27' W 025°50'1 0.1 1024.0 16.5
2015-Apr-16 23:00N 37°27' W 025°49'1 0.2 1026.6 16.8
2015-Apr-16 18:00N 37°27' W 025°51'0 0.2 1025.6 17.5
2015-Apr-16 17:00N 37°28' W 025°51'1 0.7 1025.5 17.6
2015-Apr-16 16:00N 37°28' W 025°50'3 0.4 1025.9 17.2
2015-Apr-16 10:00N 37°29' W 025°53'0 0.1 1026.3 16.4
2015-Apr-16 06:00N 37°28' W 025°53'2 0.2 1023.9 16.4
2015-Apr-15 19:00N 37°30' W 025°53'1 0.2 1021.5 16.5
2015-Apr-15 16:00N 37°31' W 025°53'0 0.4 1022.0 16.6
2015-Apr-15 15:00N 37°31' W 025°53'1 0.3 1021.8 16.6
2015-Apr-15 11:00N 37°32' W 025°54'2 0.4 1022.1 16.5
2015-Apr-15 07:00N 37°31' W 025°56'0 0.3 1021.9 16.5
2015-Apr-15 06:00N 37°31' W 025°56'0 0.1 1022.0 16.5
2015-Apr-15 03:00N 37°31' W 025°56'0 0.2 1023.4 16.6
2015-Apr-15 02:00N 37°31' W 025°56'2 0.2 1024.1 16.6
2015-Apr-14 17:00N 37°33' W 025°56'2 0.2 1024.4 16.9
2015-Apr-14 06:00N 37°35' W 025°57'0 0.1 1024.9 16.4
2015-Apr-14 03:00N 37°35' W 025°56'0 0.1 1025.3 16.4
2015-Apr-14 00:00N 37°36' W 025°56'0 0.0 1026.1 16.4
2015-Apr-13 14:00N 37°35' W 025°56'1 0.6 1025.2 16.4
2015-Apr-13 13:00N 37°35' W 025°55'1 0.3 1025.3 16.4
2015-Apr-13 11:00N 37°35' W 025°54'0 0.2 1025.3 16.3
2015-Apr-13 09:00N 37°36' W 025°54'0 0.2 1024.8 16.3
2015-Apr-13 07:00N 37°36' W 025°54'0 0.1 1023.9 16.3
2015-Apr-13 04:00N 37°36' W 025°54'3 0.3 1023.3 16.3
2015-Apr-12 20:00N 37°36' W 025°51'1 0.4 1022.7 16.5
2015-Apr-12 18:00N 37°37' W 025°51'0 0.0 1022.2 16.6
2015-Apr-12 17:00N 37°37' W 025°51'2 0.3 1022.0 16.7
2015-Apr-12 08:00N 37°37' W 025°48'0 0.5 1020.7 16.8
2015-Apr-12 07:00N 37°37' W 025°48'1 0.3 1019.7 16.8
2015-Apr-12 05:00N 37°38' W 025°48'2 1.7 1019.2 16.8
2015-Apr-12 04:00N 37°37' W 025°46'1 0.1 1019.0 16.8
2015-Apr-11 22:00N 37°38' W 025°46'0 0.0 1019.6 16.9
2015-Apr-11 21:00N 37°38' W 025°46'2 0.5 1019.5 16.9
2015-Apr-11 18:00N 37°39' W 025°46'0 0.0 1017.1 17.0
2015-Apr-11 17:00N 37°39' W 025°46'1 0.9 1017.7 17.1
2015-Apr-11 16:00N 37°40' W 025°47'0 0.0 1018.4 17.1
2015-Apr-11 15:00N 37°40' W 025°47'1 1.4 1019.5 17.1
2015-Apr-11 14:00N 37°39' W 025°48'1 0.4 1020.2 17.1
2015-Apr-11 11:00N 37°38' W 025°47'0 0.2 1022.8 17.0
2015-Apr-11 09:00N 37°38' W 025°47'1 0.2 1022.9 17.0
2015-Apr-11 05:00N 37°38' W 025°46'1 0.6 1024.3 17.0
2015-Apr-11 04:00N 37°38' W 025°47'1 0.3 1025.0 17.0
2015-Apr-11 00:00N 37°37' W 025°47'   1028.0 17.1

Dump ship's entire track history